Time;durP1;ratioP1;P1;durP2;ratioP2;P2;SDS_P1;SDS_P2;PMS_P1;PMS_P2;Temp;Humidity;BMP_temperature;BMP_pressure;BME280_temperature;BME280_humidity;BME280_pressure;Samples;Min_cycle;Max_cycle;Signal;HPM_P1;HPM_P2
2022/06/02 04:23:02;;;;;;;5.32;3.85;;;;;;;13.19;68.88;100513.91;5111784;27;20646;-77
2022/06/02 04:25:48;;;;;;;10.30;4.32;;;;;;;13.20;69.00;100517.41;5113773;28;20039;-78
2022/06/02 04:28:34;;;;;;;6.95;4.15;;;;;;;13.17;69.88;100529.31;5113487;28;20031;-76
2022/06/02 04:31:29;;;;;;;7.25;4.05;;;;;;;13.25;69.56;100531.09;5111793;28;20094;-78
2022/06/02 04:34:11;;;;;;;7.68;4.55;;;;;;;13.35;69.40;100534.31;5100277;28;20040;-77
2022/06/02 04:36:51;;;;;;;4.13;3.65;;;;;;;13.39;69.43;100534.78;5095112;28;20119;-78
2022/06/02 04:39:16;;;;;;;6.35;3.40;;;;;;;13.38;69.25;100533.97;5093041;28;20043;-76
2022/06/02 04:41:56;;;;;;;6.13;3.60;;;;;;;13.36;69.96;100535.13;5090763;28;20023;-76
2022/06/02 04:44:31;;;;;;;4.40;3.30;;;;;;;13.42;69.79;100539.75;5109180;28;20051;-77
2022/06/02 04:47:19;;;;;;;5.20;3.22;;;;;;;13.50;69.54;100532.47;5090838;28;20476;-76
2022/06/02 04:49:55;;;;;;;5.25;3.03;;;;;;;13.63;69.06;100536.31;5109029;28;20043;-76
2022/06/02 04:52:47;;;;;;;6.25;2.97;;;;;;;13.54;69.43;100535.59;5090625;28;20039;-77
2022/06/02 04:55:50;;;;;;;4.25;3.35;;;;;;;13.53;69.09;100550.84;5109121;28;20047;-78
2022/06/02 04:58:34;;;;;;;3.45;2.80;;;;;;;13.60;68.49;100547.41;5109113;28;20115;-76
2022/06/02 05:01:07;;;;;;;5.22;2.90;;;;;;;13.58;68.30;100550.28;5092579;28;20031;-75
2022/06/02 05:03:53;;;;;;;7.30;3.38;;;;;;;13.57;68.23;100546.78;5109012;28;20048;-78
2022/06/02 05:06:35;;;;;;;3.75;2.63;;;;;;;13.60;68.23;100545.56;5110809;28;20039;-77
2022/06/02 05:09:30;;;;;;;5.07;3.63;;;;;;;13.58;68.10;100550.28;5090564;28;20123;-76
2022/06/02 05:12:47;;;;;;;4.88;3.17;;;;;;;13.67;67.64;100551.84;5108685;28;20046;-76
2022/06/02 05:15:15;;;;;;;5.95;3.40;;;;;;;13.61;67.95;100549.91;5025875;28;20498;-76
2022/06/02 05:18:00;;;;;;;3.90;3.05;;;;;;;13.64;67.99;100554.91;5025968;28;20064;-76
2022/06/02 05:20:28;;;;;;;3.60;2.83;;;;;;;13.66;68.32;100552.84;5076390;28;20071;-76
2022/06/02 05:23:09;;;;;;;7.38;3.53;;;;;;;13.76;68.02;100557.94;5090300;28;20544;-75
2022/06/02 05:26:12;;;;;;;4.65;3.15;;;;;;;13.73;68.52;100555.63;5108706;28;20036;-76
2022/06/02 05:28:59;;;;;;;5.93;3.20;;;;;;;13.77;68.51;100557.75;5090375;28;20510;-77
2022/06/02 05:31:59;;;;;;;5.28;3.40;;;;;;;13.84;68.66;100560.50;5094068;28;20042;-75
2022/06/02 05:35:01;;;;;;;5.25;3.90;;;;;;;13.86;68.58;100569.19;5085102;28;20059;-77
2022/06/02 05:38:10;;;;;;;5.97;3.15;;;;;;;13.95;68.14;100567.22;5098053;28;20649;-77
2022/06/02 05:41:16;;;;;;;4.82;2.90;;;;;;;14.04;67.84;100566.09;5098860;28;20040;-78
2022/06/02 05:44:20;;;;;;;3.53;2.80;;;;;;;14.05;67.41;100563.22;5065485;28;20051;-76
2022/06/02 05:47:18;;;;;;;7.40;3.28;;;;;;;14.11;67.49;100562.47;5081197;28;20039;-77
2022/06/02 05:50:06;;;;;;;3.42;2.75;;;;;;;14.31;67.70;100567.22;5072185;28;20052;-77
2022/06/02 05:53:20;;;;;;;7.68;3.45;;;;;;;14.46;66.68;100565.34;5076996;28;20089;-77
2022/06/02 05:56:03;;;;;;;5.20;3.28;;;;;;;14.56;65.61;100557.00;5078256;28;20047;-77
2022/06/02 05:58:53;;;;;;;3.97;2.85;;;;;;;14.69;64.54;100567.03;5079976;28;20046;-78
2022/06/02 06:01:49;;;;;;;6.20;3.28;;;;;;;14.73;62.99;100560.25;5078797;28;20043;-80
2022/06/02 06:04:57;;;;;;;4.82;2.40;;;;;;;14.84;62.72;100565.91;5096295;28;20032;-78
2022/06/02 06:07:25;;;;;;;4.28;2.80;;;;;;;15.10;62.23;100580.56;5079461;28;20040;-78
2022/06/02 06:09:54;;;;;;;4.20;2.50;;;;;;;15.18;60.83;100589.31;5093862;28;20062;-75
2022/06/02 06:12:40;;;;;;;3.92;2.63;;;;;;;15.19;60.90;100587.44;5093468;28;20028;-74
2022/06/02 06:15:42;;;;;;;4.03;2.53;;;;;;;15.08;60.77;100588.81;5093621;28;20541;-77
2022/06/02 06:18:27;;;;;;;3.78;2.35;;;;;;;15.18;60.78;100581.25;5067872;28;20278;-74
2022/06/02 06:20:52;;;;;;;5.47;2.55;;;;;;;15.32;60.26;100582.19;5093493;28;20499;-75
2022/06/02 06:23:33;;;;;;;4.22;2.60;;;;;;;15.36;60.01;100578.09;5075209;28;20028;-76
2022/06/02 06:26:11;;;;;;;5.55;2.95;;;;;;;15.29;59.77;100582.56;5093274;28;20071;-74
2022/06/02 06:29:04;;;;;;;3.40;2.30;;;;;;;15.35;60.20;100573.75;5092872;28;20043;-74
2022/06/02 06:31:40;;;;;;;5.55;2.30;;;;;;;15.41;59.29;100581.00;5092889;28;20093;-74
2022/06/02 06:34:37;;;;;;;3.97;2.53;;;;;;;15.54;59.04;100582.94;5093180;28;20492;-75
2022/06/02 06:37:47;;;;;;;4.60;2.35;;;;;;;15.57;56.59;100566.44;5093320;28;20043;-77
2022/06/02 06:40:24;;;;;;;3.63;2.60;;;;;;;15.71;57.10;100572.72;5093218;28;20501;-73
2022/06/02 06:43:13;;;;;;;;;;;;;;;15.81;57.35;100583.13;5093237;28;20480;-72
2022/06/02 06:45:56;;;;;;;4.22;2.55;;;;;;;15.89;56.34;100580.28;5091623;28;19915;-73
2022/06/02 06:48:41;;;;;;;4.03;2.70;;;;;;;15.91;54.29;100588.94;5093205;28;20039;-73
2022/06/02 06:51:49;;;;;;;3.40;2.42;;;;;;;15.93;53.54;100579.69;5093050;28;20043;-73
2022/06/02 06:54:33;;;;;;;2.22;1.90;;;;;;;15.85;54.05;100577.16;5092937;28;20172;-74
2022/06/02 06:57:11;;;;;;;3.30;2.30;;;;;;;15.95;52.71;100574.91;5092802;28;20069;-73
2022/06/02 06:59:46;;;;;;;;;;;;;;;16.09;52.49;100580.34;5075072;28;20032;-75
2022/06/02 07:02:47;;;;;;;3.47;1.92;;;;;;;16.14;52.75;100569.81;5092395;28;20369;-74
2022/06/02 07:05:23;;;;;;;2.60;2.10;;;;;;;16.17;51.43;100581.03;5092674;28;20040;-74
2022/06/02 07:07:48;;;;;;;2.42;2.22;;;;;;;16.13;50.63;100573.56;5092761;28;20425;-74
2022/06/02 07:10:35;;;;;;;5.20;2.08;;;;;;;16.31;51.40;100581.06;5092580;28;20027;-74
2022/06/02 07:13:24;;;;;;;4.70;2.20;;;;;;;16.46;51.78;100579.84;5092309;28;20039;-74
2022/06/02 07:15:59;;;;;;;3.72;2.22;;;;;;;16.57;50.12;100582.97;5092521;28;20036;-73
2022/06/02 07:18:35;;;;;;;6.13;2.20;;;;;;;16.55;50.39;100584.00;5092482;28;20032;-74
2022/06/02 07:21:00;;;;;;;3.83;1.90;;;;;;;16.70;49.45;100585.72;5092315;28;20063;-74
2022/06/02 07:23:32;;;;;;;3.03;2.20;;;;;;;16.71;49.17;100587.38;5092216;28;20520;-74
2022/06/02 07:26:19;;;;;;;4.80;2.30;;;;;;;16.84;50.07;100582.00;5092240;28;20034;-74
2022/06/02 07:28:56;;;;;;;;;;;;;;;16.81;49.70;100571.63;5092820;28;20464;-74
2022/06/02 07:31:43;;;;;;;;;;;;;;;16.92;49.52;100571.03;5092698;28;19945;-74
2022/06/02 07:34:18;;;;;;;7.03;2.13;;;;;;;17.06;49.73;100574.53;5092370;28;19912;-74
2022/06/02 07:37:04;;;;;;;3.50;2.17;;;;;;;17.13;48.01;100574.53;5092301;28;20097;-74
2022/06/02 07:40:08;;;;;;;3.53;1.95;;;;;;;17.06;46.41;100571.84;5092046;28;20089;-74
2022/06/02 07:42:53;;;;;;;3.17;2.20;;;;;;;17.15;47.28;100575.16;5091208;28;20047;-73
2022/06/02 07:45:33;;;;;;;6.07;2.65;;;;;;;17.32;48.33;100565.63;5091999;28;20028;-75
2022/06/02 07:48:22;;;;;;;3.75;1.77;;;;;;;17.53;46.06;100568.06;5091973;28;20474;-75
2022/06/02 07:51:14;;;;;;;4.90;2.30;;;;;;;17.74;46.35;100560.81;5074057;28;20436;-74
2022/06/02 07:54:04;;;;;;;2.38;1.90;;;;;;;17.71;46.91;100566.56;5091811;28;20477;-75
2022/06/02 07:56:52;;;;;;;2.63;1.83;;;;;;;17.70;45.46;100565.75;5091645;28;20071;-74
2022/06/02 07:59:39;;;;;;;2.85;1.85;;;;;;;17.95;44.30;100568.59;5091886;28;20071;-75
2022/06/02 08:02:29;;;;;;;3.17;1.63;;;;;;;18.09;44.62;100572.88;5091544;28;20480;-73
2022/06/02 08:05:01;;;;;;;2.92;1.70;;;;;;;18.08;43.46;100579.31;5073649;28;20107;-73
2022/06/02 08:07:33;;;;;;;3.05;1.77;;;;;;;18.36;43.96;100580.81;5091615;28;20032;-76
2022/06/02 08:10:21;;;;;;;2.92;2.10;;;;;;;18.44;43.82;100580.56;5091733;28;20397;-74
2022/06/02 08:13:02;;;;;;;2.60;1.70;;;;;;;18.64;42.99;100577.75;5091376;28;20127;-74
2022/06/02 08:15:57;;;;;;;4.22;1.92;;;;;;;18.77;43.73;100569.59;5091655;28;20032;-75
2022/06/02 08:18:30;;;;;;;2.25;1.63;;;;;;;18.65;44.03;100569.44;5062490;28;20044;-75
2022/06/02 08:21:25;;;;;;;2.20;1.70;;;;;;;18.79;43.85;100564.00;5091614;28;20071;-74
2022/06/02 08:24:33;;;;;;;2.17;1.70;;;;;;;19.00;43.54;100571.69;5091477;28;20028;-74
2022/06/02 08:27:32;;;;;;;3.05;1.85;;;;;;;19.32;43.53;100579.72;5091581;28;20081;-76
2022/06/02 08:30:01;;;;;;;2.25;1.70;;;;;;;19.19;43.83;100575.28;5073591;28;20028;-74
2022/06/02 08:32:41;;;;;;;3.78;1.77;;;;;;;19.23;43.28;100571.91;5091291;28;20097;-74
2022/06/02 08:35:46;;;;;;;2.22;1.70;;;;;;;19.45;42.90;100572.31;5091504;28;20024;-75
2022/06/02 08:38:18;;;;;;;2.90;1.67;;;;;;;19.66;42.40;100571.06;5091568;28;20557;-74
2022/06/02 08:41:30;;;;;;;4.10;1.70;;;;;;;19.68;40.94;100568.16;5091350;28;20044;-76
2022/06/02 08:44:11;;;;;;;2.72;1.60;;;;;;;19.74;41.35;100569.94;5091232;28;20047;-74
2022/06/02 08:46:55;;;;;;;2.60;1.40;;;;;;;20.05;40.86;100568.94;5091342;28;20039;-75
2022/06/02 08:49:20;;;;;;;1.67;1.50;;;;;;;20.11;40.39;100572.63;5091498;28;20032;-74
2022/06/02 08:52:01;;;;;;;2.45;1.48;;;;;;;20.10;39.92;100566.41;5091088;28;20507;-75
2022/06/02 08:54:54;;;;;;;1.98;1.50;;;;;;;20.52;37.98;100566.47;5091241;28;20028;-74
2022/06/02 08:57:32;;;;;;;3.78;1.38;;;;;;;20.82;37.49;100577.25;5091428;28;20028;-75
2022/06/02 08:59:57;;;;;;;2.33;1.40;;;;;;;20.69;38.94;100569.34;5073370;28;20075;-75
2022/06/02 09:02:41;;;;;;;4.15;1.63;;;;;;;20.56;39.09;100568.47;5090819;28;20035;-74
2022/06/02 09:05:45;;;;;;;2.47;1.55;;;;;;;20.94;38.44;100574.56;5091238;28;20035;-75
2022/06/02 09:08:39;;;;;;;2.97;1.40;;;;;;;20.99;37.96;100575.50;5074827;28;20378;-75
2022/06/02 09:11:26;;;;;;;1.77;1.60;;;;;;;21.41;37.22;100572.72;5095047;28;20028;-75
2022/06/02 09:13:51;;;;;;;3.03;1.50;;;;;;;20.94;38.87;100563.75;5094825;28;20078;-73
2022/06/02 09:16:17;;;;;;;3.17;1.70;;;;;;;21.20;38.29;100566.00;5076843;28;20501;-76
2022/06/02 09:19:07;;;;;;;2.45;1.63;;;;;;;21.36;37.78;100564.47;5094964;28;20366;-75
2022/06/02 09:22:05;;;;;;;2.10;1.60;;;;;;;21.27;37.57;100577.53;5094445;28;20094;-75
2022/06/02 09:24:56;;;;;;;4.60;1.95;;;;;;;21.19;37.55;100569.78;5060743;28;20101;-74
2022/06/02 09:27:42;;;;;;;2.00;1.40;;;;;;;21.42;38.21;100566.25;5076315;28;20040;-74
2022/06/02 09:30:15;;;;;;;2.25;1.88;;;;;;;21.75;38.12;100565.59;5094826;28;20032;-75
2022/06/02 09:33:33;;;;;;;2.45;1.55;;;;;;;22.25;36.91;100558.78;5076364;28;20028;-75
2022/06/02 09:36:29;;;;;;;1.80;1.50;;;;;;;21.83;37.03;100567.13;5094517;28;20032;-75
2022/06/02 09:39:16;;;;;;;6.53;1.83;;;;;;;21.51;36.81;100566.69;5094521;28;20462;-74
2022/06/02 09:41:53;;;;;;;1.70;1.50;;;;;;;21.71;37.65;100564.41;5076269;28;20039;-75
2022/06/02 09:44:35;;;;;;;3.05;1.70;;;;;;;21.94;36.33;100550.81;5094579;28;20046;-74
2022/06/02 09:47:01;;;;;;;3.60;1.77;;;;;;;22.42;35.41;100549.56;5094290;28;20097;-75
2022/06/02 09:50:04;;;;;;;6.63;1.50;;;;;;;22.65;36.67;100554.06;5094567;28;20485;-75
2022/06/02 09:52:48;;;;;;;2.05;1.50;;;;;;;22.33;35.93;100558.38;5094022;28;20312;-74
2022/06/02 09:55:32;;;;;;;2.25;1.60;;;;;;;22.47;34.91;100552.41;5076099;28;20089;-74
2022/06/02 09:58:28;;;;;;;2.83;1.40;;;;;;;22.20;34.92;100554.88;5094300;28;20038;-75
2022/06/02 10:01:14;;;;;;;4.38;1.52;;;;;;;22.83;35.00;100546.78;5075884;28;20028;-74
2022/06/02 10:04:05;;;;;;;3.42;1.52;;;;;;;23.11;34.14;100552.13;5093859;28;20046;-76
2022/06/02 10:07:12;;;;;;;3.55;1.33;;;;;;;23.43;33.21;100546.88;5093983;28;20499;-75
2022/06/02 10:10:02;;;;;;;1.63;1.40;;;;;;;23.68;33.82;100543.72;5093551;28;20036;-74
2022/06/02 10:12:56;;;;;;;1.95;1.10;;;;;;;23.46;33.29;100540.94;5093678;28;20486;-75
2022/06/02 10:15:40;;;;;;;4.00;1.50;;;;;;;23.95;32.89;100541.06;5093907;28;20035;-75
2022/06/02 10:18:18;;;;;;;3.85;2.15;;;;;;;24.26;32.41;100535.94;5093764;28;20035;-75
2022/06/02 10:20:53;;;;;;;1.50;1.10;;;;;;;24.34;32.52;100533.59;5093733;28;20032;-76
2022/06/02 10:23:49;;;;;;;1.67;1.10;;;;;;;24.84;31.12;100534.31;5093553;28;20032;-75
2022/06/02 10:26:15;;;;;;;1.90;1.42;;;;;;;24.28;31.07;100526.44;5093483;28;20043;-76
2022/06/02 10:28:43;;;;;;;4.72;1.45;;;;;;;24.41;31.78;100530.69;5093541;28;20032;-75
2022/06/02 10:31:40;;;;;;;3.53;1.55;;;;;;;24.47;31.34;100496.16;5114573;22;20423;-77
2022/06/02 10:34:17;;;;;;;;;;;;;;;24.99;30.72;100531.72;5093839;28;20039;-77
2022/06/02 10:36:49;;;;;;;1.95;1.50;;;;;;;25.06;30.70;100526.88;5074894;28;20314;-76
2022/06/02 10:39:20;;;;;;;2.20;1.27;;;;;;;25.63;30.50;100536.22;5093347;28;20036;-76
2022/06/02 10:41:53;;;;;;;2.03;1.20;;;;;;;25.98;30.04;100521.91;5092939;28;20144;-75
2022/06/02 10:44:38;;;;;;;1.77;1.13;;;;;;;26.31;29.20;100530.72;5093019;28;20028;-77
2022/06/02 10:47:22;;;;;;;1.85;1.25;;;;;;;26.29;30.04;100521.97;5093371;28;20032;-77
2022/06/02 10:50:17;;;;;;;2.10;1.30;;;;;;;26.39;29.17;100508.31;5093543;28;20047;-77
2022/06/02 10:53:04;;;;;;;1.75;1.20;;;;;;;26.90;28.45;100525.56;5092715;28;20130;-76
2022/06/02 10:56:02;;;;;;;5.20;1.35;;;;;;;26.16;29.31;100526.03;5093252;28;20028;-77
2022/06/02 10:58:49;;;;;;;1.92;1.30;;;;;;;26.77;28.69;100523.38;5057013;28;20142;-76
2022/06/02 11:01:39;;;;;;;2.47;1.17;;;;;;;26.82;28.53;100517.94;5093107;28;20389;-77
2022/06/02 11:04:23;;;;;;;1.98;1.10;;;;;;;26.16;28.99;100507.75;5092722;28;20065;-76
2022/06/02 11:07:07;;;;;;;0.90;0.90;;;;;;;26.94;28.33;100507.53;5092624;28;20535;-76
2022/06/02 11:09:47;;;;;;;3.88;1.33;;;;;;;26.79;28.14;100504.78;5092781;28;20089;-77
2022/06/02 11:12:51;;;;;;;1.55;1.15;;;;;;;27.25;28.32;100500.09;5092227;28;20028;-76
2022/06/02 11:15:48;;;;;;;2.42;1.20;;;;;;;27.39;28.24;100502.28;5075552;28;20035;-76
2022/06/02 11:18:38;;;;;;;3.25;1.40;;;;;;;26.89;28.37;100498.53;5092700;28;20032;-74
2022/06/02 11:21:32;;;;;;;1.58;1.20;;;;;;;27.03;28.01;100497.66;5092314;28;20032;-74
2022/06/02 11:24:03;;;;;;;2.15;1.30;;;;;;;27.33;27.67;100490.53;5073879;28;20047;-75
2022/06/02 11:26:44;;;;;;;1.77;1.30;;;;;;;27.10;28.48;100488.41;5073991;28;20139;-75
2022/06/02 11:29:37;;;;;;;3.95;1.40;;;;;;;26.18;28.95;100488.38;5074136;28;20075;-75
2022/06/02 11:32:11;;;;;;;2.47;1.48;;;;;;;26.18;29.15;100497.38;5091812;28;20520;-75
2022/06/02 11:34:44;;;;;;;2.95;1.38;;;;;;;26.32;28.87;100488.66;5074048;28;20075;-75
2022/06/02 11:37:25;;;;;;;1.98;1.30;;;;;;;26.12;29.55;100487.53;5073958;28;20515;-75
2022/06/02 11:40:37;;;;;;;1.90;1.48;;;;;;;25.60;30.51;100472.09;5092861;28;20039;-75
2022/06/02 11:43:13;;;;;;;4.70;1.48;;;;;;;25.89;30.44;100480.69;5029144;28;20101;-75
2022/06/02 11:45:45;;;;;;;4.18;1.48;;;;;;;25.64;30.14;100477.84;5073818;28;20036;-75
2022/06/02 11:48:32;;;;;;;3.20;1.38;;;;;;;26.04;30.40;100477.16;5091874;28;20164;-75
2022/06/02 11:51:29;;;;;;;2.83;1.30;;;;;;;26.39;30.49;100470.91;5092159;28;20036;-74
2022/06/02 11:54:13;;;;;;;3.25;1.38;;;;;;;26.46;29.21;100467.94;5075303;28;20127;-73
2022/06/02 11:57:07;;;;;;;1.50;1.27;;;;;;;26.76;29.24;100467.09;5074293;28;20089;-74
2022/06/02 12:00:06;;;;;;;1.92;1.25;;;;;;;26.74;28.60;100461.94;5093641;28;20056;-74
2022/06/02 12:03:00;;;;;;;2.88;1.50;;;;;;;26.49;28.98;100461.94;5074039;28;20100;-76
2022/06/02 12:05:31;;;;;;;1.95;1.20;;;;;;;26.32;29.47;100448.50;5091761;28;20504;-75
2022/06/02 12:08:21;;;;;;;2.72;1.40;;;;;;;25.20;30.41;100450.09;5092235;28;20063;-76
2022/06/02 12:10:50;;;;;;;3.90;1.95;;;;;;;25.34;30.20;100449.34;5091810;28;20096;-75
2022/06/02 12:13:34;;;;;;;3.63;1.60;;;;;;;25.13;31.02;100453.06;5091463;28;20319;-75
2022/06/02 12:16:11;;;;;;;3.92;1.25;;;;;;;25.30;31.23;100451.00;5073417;28;20032;-76
2022/06/02 12:18:56;;;;;;;1.45;1.23;;;;;;;25.13;31.30;100448.44;5093075;28;20551;-75
2022/06/02 12:21:27;;;;;;;2.50;1.42;;;;;;;24.93;31.99;100440.13;5092200;28;20024;-76
2022/06/02 12:23:59;;;;;;;2.45;1.50;;;;;;;24.67;32.50;100449.22;5091538;28;20033;-75
2022/06/02 12:26:56;;;;;;;5.82;1.60;;;;;;;24.37;32.43;100437.00;5092223;28;20038;-75
2022/06/02 12:29:43;;;;;;;2.13;1.40;;;;;;;24.21;33.23;100441.47;5004180;28;20484;-75
2022/06/02 12:32:11;;;;;;;2.42;1.30;;;;;;;23.79;34.11;100446.75;5091483;28;20119;-75
2022/06/02 12:35:05;;;;;;;2.38;1.20;;;;;;;24.09;33.31;100446.25;5091586;28;20047;-75
2022/06/02 12:37:52;;;;;;;2.33;1.40;;;;;;;23.77;34.37;100454.34;5093090;28;20674;-76
2022/06/02 12:40:47;;;;;;;3.70;1.70;;;;;;;23.45;34.50;100451.50;5093783;28;20035;-75
2022/06/02 12:43:37;;;;;;;3.40;1.40;;;;;;;23.45;34.47;100455.03;5095346;28;20056;-74
2022/06/02 12:46:47;;;;;;;5.20;1.83;;;;;;;23.61;34.27;100447.94;5095847;28;20496;-76
2022/06/02 12:49:46;;;;;;;3.13;1.50;;;;;;;22.97;35.22;100442.19;5096280;28;20044;-77
2022/06/02 12:52:14;;;;;;;2.72;1.55;;;;;;;23.31;34.38;100448.34;5095769;28;20032;-75
2022/06/02 12:55:01;;;;;;;1.50;1.23;;;;;;;23.67;34.10;100435.19;5097844;28;20050;-76
2022/06/02 12:57:55;;;;;;;6.55;1.67;;;;;;;24.03;33.73;100441.84;5064940;28;20063;-76
2022/06/02 13:01:02;;;;;;;2.75;1.63;;;;;;;24.51;33.08;100440.91;5062869;28;20024;-76
2022/06/02 13:04:02;;;;;;;1.95;1.30;;;;;;;24.90;32.48;100440.63;5065181;28;20070;-77
2022/06/02 13:06:49;;;;;;;1.58;1.45;;;;;;;25.52;32.05;100437.16;5094976;28;20034;-77
2022/06/02 13:09:30;;;;;;;1.63;1.23;;;;;;;25.82;31.82;100436.47;5094846;28;20382;-76
2022/06/02 13:12:24;;;;;;;2.28;1.42;;;;;;;25.80;31.68;100421.44;5095740;28;20028;-76
2022/06/02 13:14:59;;;;;;;2.33;1.30;;;;;;;25.57;31.91;100439.91;5095379;28;20032;-75
2022/06/02 13:17:38;;;;;;;2.58;1.10;;;;;;;25.47;32.12;100436.31;5094570;28;20029;-76
2022/06/02 13:20:21;;;;;;;3.67;1.38;;;;;;;25.77;31.30;100432.91;5094532;28;20046;-74
2022/06/02 13:23:02;;;;;;;4.07;1.50;;;;;;;25.58;31.34;100432.53;5094103;28;20032;-74
2022/06/02 13:26:09;;;;;;;3.35;1.30;;;;;;;25.08;32.50;100434.78;5076097;28;20062;-73
2022/06/02 13:29:06;;;;;;;2.78;1.75;;;;;;;25.29;31.73;100429.41;5094366;28;20043;-74
2022/06/02 13:31:31;;;;;;;;;;;;;;;24.86;32.67;100434.09;5095335;28;20028;-74
2022/06/02 13:34:34;;;;;;;1.70;1.40;;;;;;;25.23;32.68;100425.03;5096163;28;20461;-76
2022/06/02 13:37:29;;;;;;;2.40;1.40;;;;;;;25.15;32.98;100424.47;5061365;28;20099;-75
2022/06/02 13:40:34;;;;;;;2.15;1.58;;;;;;;24.86;33.19;100439.53;5095288;28;20035;-74
2022/06/02 13:43:37;;;;;;;2.22;1.85;;;;;;;24.64;33.07;100431.47;5095644;28;20123;-74
2022/06/02 13:46:18;;;;;;;2.72;1.40;;;;;;;24.61;33.50;100423.84;5094704;28;20039;-73
2022/06/02 13:49:09;;;;;;;3.22;1.30;;;;;;;24.24;34.14;100424.59;5075824;28;20496;-74
2022/06/02 13:52:06;;;;;;;2.45;1.73;;;;;;;24.55;33.96;100422.97;5093593;28;20066;-73
2022/06/02 13:58:00;;;;;;;10.82;1.60;;;;;;;23.95;34.06;100415.91;5093831;28;20047;-75
2022/06/02 14:01:00;;;;;;;2.20;1.45;;;;;;;23.95;34.81;100412.38;5075537;28;20364;-75
2022/06/02 14:03:32;;;;;;;2.75;1.40;;;;;;;24.21;35.19;100421.59;5093649;28;20032;-74
2022/06/02 14:06:20;;;;;;;3.20;1.60;;;;;;;24.22;34.60;100412.34;5093799;28;20118;-74
2022/06/02 14:09:28;;;;;;;2.92;1.60;;;;;;;24.21;34.47;100413.44;5075808;28;20031;-74
2022/06/02 14:12:12;;;;;;;1.75;1.50;;;;;;;24.17;35.75;100406.84;5093619;28;20078;-74
2022/06/02 14:15:09;;;;;;;2.25;1.23;;;;;;;24.43;34.32;100400.56;5093736;28;20089;-75
2022/06/02 14:17:47;;;;;;;1.67;1.30;;;;;;;24.26;34.93;100397.97;5093584;28;20046;-74
2022/06/02 14:20:34;;;;;;;3.10;1.42;;;;;;;24.20;35.05;100399.00;5076012;28;20036;-74
2022/06/02 14:23:18;;;;;;;2.38;1.40;;;;;;;24.14;35.68;100401.94;5058407;28;20051;-74
2022/06/02 14:26:11;;;;;;;2.83;1.45;;;;;;;23.78;35.37;100391.53;5093659;28;20032;-75
2022/06/02 14:29:10;;;;;;;2.40;1.50;;;;;;;23.93;35.95;100395.47;5075365;28;20038;-74
2022/06/02 14:31:51;;;;;;;2.63;1.58;;;;;;;23.99;35.57;100395.25;5093124;28;20065;-74
2022/06/02 14:34:35;;;;;;;3.50;1.60;;;;;;;23.97;35.02;100386.53;5075302;28;20089;-74
2022/06/02 14:37:06;;;;;;;2.10;1.40;;;;;;;23.87;35.08;100375.59;5093021;28;20042;-74
2022/06/02 14:39:37;;;;;;;2.95;1.52;;;;;;;23.87;35.51;100369.34;5093003;28;20040;-75
2022/06/02 14:43:03;;;;;;;3.50;1.50;;;;;;;23.86;35.34;100364.94;5092711;28;20023;-75
2022/06/02 14:45:50;;;;;;;1.98;1.42;;;;;;;23.96;35.52;100349.53;5056583;28;20083;-76
2022/06/02 14:48:15;;;;;;;2.35;1.40;;;;;;;23.98;35.17;100363.69;5092907;28;20111;-75
2022/06/02 14:51:11;;;;;;;2.72;1.48;;;;;;;24.05;35.66;100358.03;5074248;28;20074;-76
2022/06/02 14:53:36;;;;;;;4.70;1.48;;;;;;;23.90;36.08;100361.47;5074227;28;20504;-75
2022/06/02 14:56:17;;;;;;;4.93;1.40;;;;;;;24.10;35.94;100361.63;5092836;28;20039;-76
2022/06/02 14:59:01;;;;;;;3.38;1.42;;;;;;;23.98;35.84;100358.25;5074607;28;20063;-75
2022/06/02 15:01:34;;;;;;;4.78;1.60;;;;;;;24.08;35.43;100344.75;5093484;28;20032;-75
2022/06/02 15:04:18;;;;;;;2.85;1.70;;;;;;;24.03;35.29;100349.34;5092442;28;20127;-76
2022/06/02 15:07:17;;;;;;;2.60;1.80;;;;;;;23.95;35.91;100336.22;5091962;28;20106;-75
2022/06/02 15:10:15;;;;;;;1.65;1.42;;;;;;;23.99;35.48;100346.28;5092591;28;20064;-75
2022/06/02 15:12:44;;;;;;;3.92;1.95;;;;;;;23.70;36.12;100342.25;5092358;28;20116;-76
2022/06/02 15:15:42;;;;;;;3.40;1.77;;;;;;;23.80;36.12;100336.91;5074569;28;20032;-75
2022/06/02 15:18:34;;;;;;;5.60;2.40;;;;;;;23.62;36.33;100340.00;5074692;28;20122;-76
2022/06/02 15:21:24;;;;;;;2.78;2.20;;;;;;;23.74;36.10;100341.47;5056101;28;20040;-76
2022/06/02 15:24:04;;;;;;;3.30;1.77;;;;;;;23.68;36.12;100342.50;5092268;28;20032;-77
2022/06/02 15:26:58;;;;;;;3.00;2.38;;;;;;;23.80;36.18;100339.63;5092034;28;20107;-76
2022/06/02 15:29:32;;;;;;;3.40;1.60;;;;;;;23.84;36.83;100338.00;5092013;28;20084;-75
2022/06/02 15:32:16;;;;;;;2.97;1.80;;;;;;;23.78;36.78;100337.13;5073201;28;20150;-76
2022/06/02 15:35:09;;;;;;;3.10;1.90;;;;;;;23.54;36.58;100339.34;5073833;28;20484;-75
2022/06/02 15:37:56;;;;;;;2.13;1.50;;;;;;;23.61;36.93;100336.47;5073934;28;20035;-76
2022/06/02 15:40:47;;;;;;;3.42;1.80;;;;;;;23.67;36.99;100334.59;5091993;28;20032;-75
2022/06/02 15:43:30;;;;;;;2.88;1.52;;;;;;;23.74;36.60;100329.78;5091380;28;20073;-76
2022/06/02 15:46:02;;;;;;;3.08;1.75;;;;;;;23.50;36.43;100330.06;5091792;28;20119;-75
2022/06/02 15:48:55;;;;;;;2.75;1.70;;;;;;;23.53;36.64;100318.66;5091736;28;20046;-75
2022/06/02 15:51:51;;;;;;;3.35;1.90;;;;;;;23.62;36.89;100316.34;5073411;28;20122;-76
2022/06/02 15:54:43;;;;;;;4.97;1.77;;;;;;;23.67;37.23;100318.25;5091795;28;20051;-76
2022/06/02 15:57:28;;;;;;;2.63;1.60;;;;;;;23.77;37.25;100315.66;5091560;28;20084;-76
2022/06/02 15:59:56;;;;;;;4.15;1.67;;;;;;;23.77;37.74;100316.47;5091330;28;20124;-76
2022/06/02 16:02:45;;;;;;;4.60;1.90;;;;;;;23.69;37.04;100316.94;5073109;28;20099;-76
2022/06/02 16:05:26;;;;;;;7.22;1.88;;;;;;;23.79;36.93;100318.94;5091281;28;20039;-75
2022/06/02 16:08:22;;;;;;;2.80;1.55;;;;;;;23.83;36.96;100306.47;5091734;28;20035;-76
2022/06/02 16:11:16;;;;;;;3.55;1.95;;;;;;;23.92;37.06;100299.44;5091216;28;20043;-76
2022/06/02 16:14:09;;;;;;;4.80;1.90;;;;;;;23.67;37.85;100291.06;5091606;28;20220;-76
2022/06/02 16:17:03;;;;;;;5.38;1.70;;;;;;;23.77;37.04;100289.28;5073111;28;20460;-76
2022/06/02 16:20:07;;;;;;;4.82;1.75;;;;;;;23.83;37.55;100293.69;5091424;28;20035;-76
2022/06/02 16:23:19;;;;;;;4.85;1.65;;;;;;;23.84;37.36;100299.94;5059565;28;20047;-75
2022/06/02 16:25:48;;;;;;;3.72;1.90;;;;;;;23.81;37.68;100300.47;5075671;28;20035;-75
2022/06/02 16:28:31;;;;;;;5.85;2.10;;;;;;;23.80;37.44;100296.94;5077170;28;20024;-75
2022/06/02 16:33:43;;;;;;;3.13;1.77;;;;;;;23.68;37.29;100298.19;5011151;28;20046;-73
2022/06/02 16:36:36;;;;;;;5.07;1.55;;;;;;;23.47;37.54;100300.69;5013105;28;20026;-74
2022/06/02 16:39:42;;;;;;;4.35;2.05;;;;;;;23.44;37.94;100301.19;5011884;28;20069;-76
2022/06/02 16:42:34;;;;;;;2.70;1.80;;;;;;;23.50;38.62;100304.78;5021636;28;20061;-74
2022/06/02 16:45:37;;;;;;;4.40;2.05;;;;;;;23.28;38.46;100302.13;5031456;28;20080;-75
2022/06/02 16:48:17;;;;;;;5.05;1.85;;;;;;;23.36;38.64;100304.38;5031971;28;20083;-77
2022/06/02 16:51:38;;;;;;;9.07;2.03;;;;;;;23.16;39.03;100301.44;5031324;28;20533;-73
2022/06/02 16:54:12;;;;;;;3.90;2.00;;;;;;;23.17;39.04;100300.34;5008092;28;20637;-74
2022/06/02 16:57:07;;;;;;;2.58;1.65;;;;;;;23.21;38.72;100299.59;5013528;28;20398;-73
2022/06/02 16:59:54;;;;;;;2.55;1.98;;;;;;;23.02;38.91;100301.81;5013722;28;20030;-73
2022/06/02 17:02:49;;;;;;;6.97;1.90;;;;;;;22.99;39.11;100299.59;5013177;28;20082;-74
2022/06/02 17:05:35;;;;;;;2.63;1.63;;;;;;;23.06;38.61;100298.59;5013597;28;20084;-74
2022/06/02 17:08:10;;;;;;;2.88;1.70;;;;;;;23.05;39.13;100299.66;5031212;28;20034;-75
2022/06/02 17:10:45;;;;;;;2.30;1.80;;;;;;;23.04;39.27;100298.03;5013628;28;20038;-72
2022/06/02 17:13:49;;;;;;;2.15;1.75;;;;;;;22.97;39.77;100295.50;5012957;28;20046;-75
2022/06/02 17:16:37;;;;;;;4.82;2.15;;;;;;;22.88;39.82;100297.84;5030996;28;20109;-72
2022/06/02 17:19:30;;;;;;;3.35;1.55;;;;;;;22.79;40.12;100298.50;5010261;28;20041;-72
2022/06/02 17:22:25;;;;;;;2.15;1.70;;;;;;;22.79;39.97;100291.19;5013339;28;20479;-72
2022/06/02 17:24:56;;;;;;;3.90;2.28;;;;;;;22.72;40.17;100291.38;5012859;28;20048;-72